createdAt,value
2018-06-19T00:00:30.041Z,89.70
2018-06-19T00:02:58.329Z,90.00
2018-06-19T00:05:29.751Z,89.80
2018-06-19T00:07:58.939Z,89.20
2018-06-19T00:10:27.170Z,90.00
2018-06-19T00:12:55.805Z,90.40
2018-06-19T00:15:24.395Z,90.40
2018-06-19T00:17:57.018Z,91.00
2018-06-19T00:20:25.243Z,90.70
2018-06-19T00:22:53.445Z,90.70
2018-06-19T00:25:21.655Z,90.70
2018-06-19T00:27:49.846Z,90.80
2018-06-19T00:30:18.070Z,91.10
2018-06-19T00:32:46.270Z,91.10
2018-06-19T00:35:14.476Z,91.40
2018-06-19T00:37:42.671Z,91.20
2018-06-19T00:40:10.867Z,91.40
2018-06-19T00:42:39.072Z,91.40
2018-06-19T00:45:07.312Z,92.20
2018-06-19T00:47:35.511Z,91.80
2018-06-19T00:50:03.727Z,91.70
2018-06-19T00:52:31.970Z,91.50
2018-06-19T00:55:00.163Z,91.20
2018-06-19T00:57:28.358Z,90.90
2018-06-19T00:59:56.560Z,90.40
2018-06-19T01:02:24.759Z,90.30
2018-06-19T01:04:52.935Z,90.30
2018-06-19T01:07:21.143Z,90.20
2018-06-19T01:09:49.342Z,90.40
2018-06-19T01:12:17.539Z,90.60
2018-06-19T01:14:45.726Z,91.00
2018-06-19T01:17:13.945Z,91.00
2018-06-19T01:19:42.137Z,91.00
2018-06-19T01:22:10.339Z,91.00
2018-06-19T01:24:38.530Z,91.00
2018-06-19T01:27:06.736Z,90.70
2018-06-19T01:29:34.950Z,91.00
2018-06-19T01:32:03.147Z,90.80
2018-06-19T01:34:31.354Z,90.90
2018-06-19T01:36:59.566Z,91.50
2018-06-19T01:39:27.767Z,90.90
2018-06-19T01:41:55.962Z,91.40
2018-06-19T01:44:24.167Z,91.10
2018-06-19T01:46:52.386Z,91.50
2018-06-19T01:49:20.587Z,91.60
2018-06-19T01:51:48.775Z,91.70
2018-06-19T01:54:16.972Z,91.60
2018-06-19T01:56:45.164Z,91.40
2018-06-19T01:59:13.360Z,91.30
2018-06-19T02:01:41.557Z,91.80
2018-06-19T02:04:09.751Z,91.60
2018-06-19T02:06:37.938Z,91.60
2018-06-19T02:09:07.779Z,91.60
2018-06-19T02:11:35.972Z,91.90
2018-06-19T02:14:04.172Z,92.30
2018-06-19T02:16:32.364Z,92.60
2018-06-19T02:19:00.567Z,92.30
2018-06-19T02:21:28.770Z,92.20
2018-06-19T02:23:56.972Z,92.70
2018-06-19T02:26:25.160Z,92.00
2018-06-19T02:28:53.429Z,91.40
2018-06-19T02:31:21.627Z,91.00
2018-06-19T02:33:49.826Z,91.20
2018-06-19T02:36:18.024Z,91.50
2018-06-19T02:38:46.244Z,91.70
2018-06-19T02:41:14.478Z,91.70
2018-06-19T02:43:42.674Z,91.60
2018-06-19T02:46:10.875Z,91.40
2018-06-19T02:48:39.075Z,90.90
2018-06-19T02:51:07.271Z,91.10
2018-06-19T02:53:35.475Z,91.10
2018-06-19T02:56:03.669Z,91.30
2018-06-19T02:58:31.855Z,91.40
2018-06-19T03:01:00.071Z,92.00
2018-06-19T03:03:28.256Z,92.10
2018-06-19T03:05:56.456Z,92.30
2018-06-19T03:08:24.643Z,92.20
2018-06-19T03:10:52.839Z,92.30
2018-06-19T03:13:21.031Z,92.50
2018-06-19T03:15:49.231Z,92.40
2018-06-19T03:18:17.489Z,92.60
2018-06-19T03:20:45.684Z,92.50
2018-06-19T03:23:13.875Z,92.70
2018-06-19T03:25:42.079Z,92.20
2018-06-19T03:28:10.263Z,91.70
2018-06-19T03:30:38.459Z,91.60
2018-06-19T03:33:06.654Z,92.00
2018-06-19T03:35:34.889Z,91.80
2018-06-19T03:38:03.058Z,91.40
2018-06-19T03:40:31.262Z,91.50
2018-06-19T03:42:59.450Z,91.90
2018-06-19T03:45:27.654Z,91.80
2018-06-19T03:47:55.848Z,91.60
2018-06-19T03:50:24.052Z,91.60
2018-06-19T03:52:52.235Z,91.70
2018-06-19T03:55:20.438Z,92.00
2018-06-19T03:57:48.632Z,92.50
2018-06-19T04:00:16.840Z,92.40
2018-06-19T04:05:13.020Z,92.40
2018-06-19T04:07:41.216Z,92.30
2018-06-19T04:10:09.424Z,92.30
2018-06-19T04:12:37.636Z,92.50
2018-06-19T04:15:05.851Z,92.50
2018-06-19T04:17:34.067Z,92.50
2018-06-19T04:20:02.271Z,92.40
2018-06-19T04:22:30.481Z,92.60
2018-06-19T04:24:59.300Z,92.30
2018-06-19T04:27:28.199Z,92.40
2018-06-19T04:29:56.471Z,92.60
2018-06-19T04:32:26.316Z,91.80
2018-06-19T04:34:54.626Z,92.10
2018-06-19T04:37:22.873Z,92.00
2018-06-19T04:39:51.081Z,92.40
2018-06-19T04:42:24.744Z,92.50
2018-06-19T04:44:54.300Z,92.00
2018-06-19T04:47:23.468Z,92.00
2018-06-19T04:49:57.933Z,92.00
2018-06-19T04:52:26.349Z,92.20
2018-06-19T04:54:54.605Z,92.00
2018-06-19T04:57:22.959Z,92.00
2018-06-19T04:59:51.172Z,92.30
2018-06-19T05:02:19.406Z,92.60
2018-06-19T05:04:47.616Z,93.20
2018-06-19T05:07:17.044Z,92.80
2018-06-19T05:09:45.263Z,92.90
2018-06-19T05:12:13.483Z,92.80
2018-06-19T05:14:41.804Z,92.80
2018-06-19T05:17:10.163Z,92.50
2018-06-19T05:19:38.452Z,92.60
2018-06-19T05:22:06.789Z,92.90
2018-06-19T05:24:35.073Z,91.90
2018-06-19T05:27:03.515Z,92.00
2018-06-19T05:29:32.653Z,91.40
2018-06-19T05:32:01.000Z,91.60
2018-06-19T05:34:29.361Z,91.30
2018-06-19T05:36:57.821Z,91.70
2018-06-19T05:39:26.273Z,92.20
2018-06-19T05:41:54.692Z,92.80
2018-06-19T05:44:23.064Z,92.30
2018-06-19T05:46:51.353Z,92.20
2018-06-19T05:49:19.727Z,92.10
2018-06-19T05:51:48.056Z,91.90
2018-06-19T05:54:16.427Z,92.00
2018-06-19T05:56:44.707Z,91.70
2018-06-19T05:59:13.065Z,92.10
2018-06-19T06:01:41.397Z,91.50
2018-06-19T06:04:09.719Z,92.10
2018-06-19T06:06:38.047Z,91.80
2018-06-19T06:09:08.382Z,91.10
2018-06-19T06:11:36.724Z,90.50
2018-06-19T06:14:05.124Z,90.50
2018-06-19T06:16:33.486Z,89.80
2018-06-19T06:19:01.797Z,90.00
2018-06-19T06:21:30.140Z,90.20
2018-06-19T06:23:58.465Z,88.30
2018-06-19T06:26:26.788Z,89.50
2018-06-19T06:28:55.120Z,87.70
2018-06-19T06:31:23.479Z,87.30
2018-06-19T06:33:52.016Z,88.80
2018-06-19T06:36:20.330Z,88.90
2018-06-19T06:38:48.720Z,90.00
2018-06-19T06:41:17.060Z,89.80
2018-06-19T06:43:45.383Z,89.20
2018-06-19T06:46:13.708Z,87.60
2018-06-19T06:48:42.095Z,88.50
2018-06-19T06:51:10.408Z,89.00
2018-06-19T06:53:38.765Z,89.10
2018-06-19T06:56:07.130Z,87.10
2018-06-19T06:58:35.448Z,88.80
2018-06-19T07:01:03.783Z,87.50
2018-06-19T07:03:32.145Z,85.90
2018-06-19T07:06:00.521Z,86.00
2018-06-19T07:08:28.876Z,86.00
2018-06-19T07:10:57.248Z,87.30
2018-06-19T07:13:25.611Z,87.60
2018-06-19T07:15:53.988Z,86.90
2018-06-19T07:18:22.284Z,86.40
2018-06-19T07:20:50.646Z,85.90
2018-06-19T07:23:19.000Z,83.90
2018-06-19T07:25:47.346Z,82.20
2018-06-19T07:28:15.716Z,79.50
2018-06-19T07:30:44.179Z,77.40
2018-06-19T07:33:12.553Z,79.40
2018-06-19T07:35:40.903Z,78.20
2018-06-19T07:38:09.395Z,77.20
2018-06-19T07:40:37.718Z,76.00
2018-06-19T07:43:06.074Z,76.10
2018-06-19T07:45:34.888Z,76.00
2018-06-19T07:48:03.251Z,75.40
2018-06-19T07:50:32.031Z,74.70
2018-06-19T07:53:00.388Z,73.80
2018-06-19T07:55:28.767Z,73.50
2018-06-19T07:57:57.145Z,72.20
2018-06-19T08:00:25.544Z,73.10
2018-06-19T08:02:53.904Z,70.50
2018-06-19T08:05:22.305Z,69.30
2018-06-19T08:07:50.646Z,69.00
2018-06-19T08:10:19.037Z,62.60
2018-06-19T08:12:48.069Z,63.20
2018-06-19T08:15:16.661Z,62.20
2018-06-19T08:17:45.095Z,59.30
2018-06-19T08:20:13.435Z,58.50
2018-06-19T08:22:41.998Z,59.70
2018-06-19T08:25:10.334Z,58.10
2018-06-19T08:27:38.718Z,58.00
2018-06-19T08:30:07.132Z,57.50
2018-06-19T08:35:03.630Z,54.80
2018-06-19T08:37:31.989Z,52.70
2018-06-19T08:40:00.394Z,51.30
2018-06-19T08:42:28.792Z,49.70
2018-06-19T08:44:57.144Z,48.00
2018-06-19T08:47:25.493Z,49.40
2018-06-19T08:49:53.812Z,49.80
2018-06-19T08:52:22.233Z,48.90
2018-06-19T08:54:50.634Z,47.40
2018-06-19T08:57:19.055Z,48.10
2018-06-19T08:59:47.403Z,49.20
2018-06-19T09:02:15.788Z,48.40
2018-06-19T09:04:44.152Z,48.00
2018-06-19T09:07:12.536Z,47.30
2018-06-19T09:09:41.021Z,47.20
2018-06-19T09:12:09.395Z,45.30
2018-06-19T09:14:37.848Z,46.70
2018-06-19T09:17:06.263Z,46.30
2018-06-19T09:19:34.700Z,47.00
2018-06-19T09:22:03.142Z,47.20
2018-06-19T09:24:31.559Z,45.70
2018-06-19T09:27:00.005Z,46.60
2018-06-19T09:29:28.449Z,45.80
2018-06-19T09:31:56.891Z,47.30
2018-06-19T09:34:25.412Z,45.80
2018-06-19T09:36:53.946Z,45.80
2018-06-19T09:39:22.404Z,46.50
2018-06-19T09:41:50.932Z,45.00
2018-06-19T09:44:19.356Z,45.70
2018-06-19T09:46:47.837Z,45.70
2018-06-19T09:49:16.280Z,45.90
2018-06-19T09:51:44.896Z,45.80
2018-06-19T09:54:13.312Z,44.40
2018-06-19T09:56:41.846Z,46.60
2018-06-19T09:59:10.243Z,44.10
2018-06-19T10:01:38.712Z,45.80
2018-06-19T10:04:07.278Z,43.70
2018-06-19T10:06:35.758Z,45.90
2018-06-19T10:09:06.366Z,46.80
2018-06-19T10:11:34.735Z,44.40
2018-06-19T10:14:03.328Z,44.70
2018-06-19T10:16:31.797Z,43.00
2018-06-19T10:19:00.230Z,43.80
2018-06-19T10:21:28.649Z,45.30
2018-06-19T10:23:57.132Z,47.40
2018-06-19T10:26:25.538Z,46.50
2018-06-19T10:28:53.926Z,44.40
2018-06-19T10:31:22.384Z,44.70
2018-06-19T10:33:50.811Z,44.10
2018-06-19T10:36:19.260Z,44.60
2018-06-19T10:38:47.800Z,43.40
2018-06-19T10:41:16.243Z,44.40
2018-06-19T10:43:44.729Z,43.40
2018-06-19T10:46:13.145Z,44.10
2018-06-19T10:48:41.637Z,45.30
2018-06-19T10:51:10.132Z,44.90
2018-06-19T10:53:38.597Z,43.40
2018-06-19T10:56:07.150Z,45.80
2018-06-19T10:58:35.677Z,44.60
2018-06-19T11:01:04.184Z,42.00
2018-06-19T11:03:32.651Z,42.90
2018-06-19T11:06:01.107Z,43.80
2018-06-19T11:08:30.284Z,41.80
2018-06-19T11:10:58.736Z,43.30
2018-06-19T11:13:27.324Z,44.10
2018-06-19T11:15:55.622Z,42.50
2018-06-19T11:18:23.928Z,44.60
2018-06-19T11:20:52.780Z,45.40
2018-06-19T11:23:21.008Z,44.00
2018-06-19T11:25:50.002Z,43.80
2018-06-19T11:28:18.352Z,44.60
2018-06-19T11:30:46.610Z,44.90
2018-06-19T11:33:14.839Z,45.10
2018-06-19T11:35:43.051Z,44.90
2018-06-19T11:40:39.397Z,45.90
2018-06-19T11:43:07.610Z,47.30
2018-06-19T11:45:35.929Z,45.40
2018-06-19T11:48:04.400Z,46.30
2018-06-19T11:50:32.711Z,45.50
2018-06-19T11:53:00.907Z,45.10
2018-06-19T11:55:29.903Z,43.90
2018-06-19T11:57:58.187Z,45.30
2018-06-19T12:00:26.571Z,46.60
2018-06-19T12:02:55.259Z,47.30
2018-06-19T12:05:23.530Z,45.70
2018-06-19T12:07:51.810Z,45.60
2018-06-19T12:10:20.101Z,47.60
2018-06-19T12:12:49.911Z,47.80
2018-06-19T12:15:18.587Z,47.20
2018-06-19T12:17:46.838Z,46.30
2018-06-19T12:20:15.066Z,46.60
2018-06-19T12:22:43.295Z,46.40
2018-06-19T12:25:11.536Z,46.00
2018-06-19T12:27:39.806Z,46.90
2018-06-19T12:30:08.011Z,48.90
2018-06-19T12:32:36.265Z,48.70
2018-06-19T12:35:04.499Z,48.40
2018-06-19T12:37:32.718Z,47.70
2018-06-19T12:40:00.929Z,47.80
2018-06-19T12:42:29.184Z,49.00
2018-06-19T12:44:57.392Z,48.60
2018-06-19T12:47:25.615Z,49.40
2018-06-19T12:50:39.958Z,48.40
2018-06-19T12:53:20.242Z,48.40
2018-06-19T12:58:26.306Z,48.10
2018-06-19T13:00:54.754Z,47.90
2018-06-19T13:03:35.620Z,48.70
2018-06-19T13:06:15.290Z,48.70
2018-06-19T13:08:53.709Z,50.60
2018-06-19T13:11:22.025Z,50.60
2018-06-19T13:14:33.316Z,49.40
2018-06-19T13:18:11.506Z,50.40
2018-06-19T13:20:46.132Z,49.80
2018-06-19T13:23:15.222Z,50.80
2018-06-19T13:25:43.508Z,50.10
2018-06-19T13:28:11.883Z,50.60
2018-06-19T13:30:51.527Z,50.90
2018-06-19T13:33:19.743Z,51.50
2018-06-19T13:35:47.947Z,50.80
2018-06-19T13:38:16.182Z,50.30
2018-06-19T13:41:06.787Z,50.10
2018-06-19T13:43:47.473Z,50.80
2018-06-19T13:46:15.680Z,50.60
2018-06-19T13:48:44.076Z,50.70
2018-06-19T13:51:12.753Z,50.30
2018-06-19T13:53:41.762Z,50.50
2018-06-19T13:57:31.410Z,50.90
2018-06-19T14:00:00.973Z,50.30
2018-06-19T14:02:29.286Z,50.70
2018-06-19T14:04:57.718Z,51.20
2018-06-19T14:07:26.756Z,51.40
2018-06-19T14:10:07.486Z,51.10
2018-06-19T14:12:59.119Z,50.50
2018-06-19T14:15:28.500Z,51.00
2018-06-19T14:17:57.058Z,51.00
2018-06-19T14:20:25.310Z,50.70
2018-06-19T14:22:53.717Z,51.20
2018-06-19T14:25:24.448Z,51.30
2018-06-19T14:27:52.711Z,51.40
2018-06-19T14:30:20.962Z,51.00
2018-06-19T14:32:49.392Z,51.50
2018-06-19T14:35:17.974Z,51.80
2018-06-19T14:37:46.683Z,52.10
2018-06-19T14:40:15.351Z,51.90
2018-06-19T14:42:43.572Z,51.90
2018-06-19T14:45:12.219Z,52.50
2018-06-19T14:47:40.699Z,52.20
2018-06-19T14:50:08.907Z,52.30
2018-06-19T14:52:37.247Z,53.30
2018-06-19T14:55:06.075Z,53.40
2018-06-19T14:57:34.327Z,52.70
2018-06-19T15:00:02.635Z,52.40
2018-06-19T15:02:30.938Z,53.20
2018-06-19T15:04:59.155Z,53.90
2018-06-19T15:09:59.705Z,53.10
2018-06-19T15:12:27.947Z,53.20
2018-06-19T15:14:56.185Z,52.30
2018-06-19T15:17:24.421Z,52.60
2018-06-19T15:19:52.624Z,52.60
2018-06-19T15:22:20.867Z,52.50
2018-06-19T15:24:49.099Z,52.90
2018-06-19T15:27:17.298Z,53.60
2018-06-19T15:29:45.897Z,52.90
2018-06-19T15:32:14.106Z,52.80
2018-06-19T15:34:42.806Z,53.10
2018-06-19T15:37:11.140Z,53.10
2018-06-19T15:39:39.495Z,53.20
2018-06-19T15:42:07.868Z,52.90
2018-06-19T15:44:36.238Z,52.90
2018-06-19T15:47:04.489Z,52.90
2018-06-19T15:49:32.690Z,53.10
2018-06-19T15:52:01.065Z,53.00
2018-06-19T15:54:29.263Z,53.20
2018-06-19T15:56:57.488Z,52.90
2018-06-19T15:59:25.747Z,53.20
2018-06-19T16:01:54.125Z,53.10
2018-06-19T16:04:22.329Z,53.40
2018-06-19T16:06:50.661Z,53.80
2018-06-19T16:09:18.963Z,53.00
2018-06-19T16:11:47.542Z,53.50
2018-06-19T16:14:16.067Z,53.40
2018-06-19T16:16:44.487Z,53.30
2018-06-19T16:19:12.783Z,53.60
2018-06-19T16:21:41.098Z,53.80
2018-06-19T16:24:09.402Z,53.50
2018-06-19T16:26:37.837Z,53.60
2018-06-19T16:29:06.147Z,53.00
2018-06-19T16:31:34.556Z,52.70
2018-06-19T16:34:02.844Z,53.20
2018-06-19T16:36:31.247Z,53.70
2018-06-19T16:38:59.659Z,54.20
2018-06-19T16:41:28.907Z,53.60
2018-06-19T16:43:57.258Z,53.50
2018-06-19T16:46:25.601Z,53.50
2018-06-19T16:48:54.043Z,53.70
2018-06-19T16:51:22.613Z,53.50
2018-06-19T16:53:51.024Z,53.70
2018-06-19T16:56:19.324Z,53.80
2018-06-19T16:58:47.865Z,54.00
2018-06-19T17:01:16.342Z,53.50
2018-06-19T17:03:46.903Z,53.70
2018-06-19T17:06:15.232Z,53.90
2018-06-19T17:08:43.771Z,53.80
2018-06-19T17:11:12.468Z,53.90
2018-06-19T17:13:41.067Z,53.70
2018-06-19T17:16:16.381Z,53.40
2018-06-19T17:18:45.206Z,53.10
2018-06-19T17:21:13.952Z,52.10
2018-06-19T17:23:42.504Z,51.00
2018-06-19T17:26:10.994Z,50.60
2018-06-19T17:28:47.322Z,50.30
2018-06-19T17:31:15.666Z,50.60
2018-06-19T17:33:43.931Z,50.80
2018-06-19T17:36:13.248Z,51.30
2018-06-19T17:38:41.918Z,51.70
2018-06-19T17:41:10.438Z,52.20
2018-06-19T17:43:38.949Z,51.60
2018-06-19T17:46:07.393Z,52.10
2018-06-19T17:48:35.718Z,52.00
2018-06-19T17:51:03.979Z,52.60
2018-06-19T17:56:00.223Z,52.80
2018-06-19T17:58:28.447Z,53.20
2018-06-19T18:00:56.679Z,54.00
2018-06-19T18:05:52.967Z,54.10
2018-06-19T18:08:21.940Z,54.30
2018-06-19T18:10:50.297Z,54.10
2018-06-19T18:13:18.693Z,54.60
2018-06-19T18:15:47.000Z,54.60
2018-06-19T18:18:15.286Z,55.10
2018-06-19T18:20:43.607Z,55.30
2018-06-19T18:23:11.848Z,55.40
2018-06-19T18:25:40.070Z,55.60
2018-06-19T18:28:08.470Z,55.90
2018-06-19T18:30:36.664Z,56.30
2018-06-19T18:33:04.868Z,56.50
2018-06-19T18:35:33.088Z,56.70
2018-06-19T18:38:01.286Z,57.00
2018-06-19T18:40:29.563Z,57.20
2018-06-19T18:42:57.760Z,57.40
2018-06-19T18:45:26.063Z,57.40
2018-06-19T18:47:54.388Z,57.80
2018-06-19T18:50:22.592Z,58.20
2018-06-19T18:52:50.818Z,58.10
2018-06-19T18:55:19.109Z,58.60
2018-06-19T18:57:47.334Z,58.90
2018-06-19T19:00:15.595Z,59.00
2018-06-19T19:02:43.807Z,59.00
2018-06-19T19:05:12.022Z,59.10
2018-06-19T19:07:40.263Z,59.70
2018-06-19T19:10:13.921Z,59.80
2018-06-19T19:12:42.198Z,60.20
2018-06-19T19:15:15.879Z,60.40
2018-06-19T19:17:49.654Z,60.80
2018-06-19T19:20:17.893Z,60.90
2018-06-19T19:22:46.387Z,61.40
2018-06-19T19:25:14.996Z,62.10
2018-06-19T19:27:48.593Z,62.50
2018-06-19T19:30:16.830Z,62.90
2018-06-19T19:32:45.047Z,63.50
2018-06-19T19:35:13.283Z,63.40
2018-06-19T19:37:46.840Z,63.80
2018-06-19T19:40:21.824Z,63.90
2018-06-19T19:42:50.057Z,64.10
2018-06-19T19:45:18.313Z,64.90
2018-06-19T19:47:51.946Z,64.80
2018-06-19T19:50:20.129Z,65.60
2018-06-19T19:52:48.355Z,67.20
2018-06-19T19:55:17.118Z,67.10
2018-06-19T19:57:50.952Z,70.00
2018-06-19T20:00:24.576Z,70.60
2018-06-19T20:02:53.195Z,71.10
2018-06-19T20:05:21.594Z,69.00
2018-06-19T20:07:50.022Z,69.90
2018-06-19T20:10:18.482Z,70.30
2018-06-19T20:12:46.907Z,70.20
2018-06-19T20:15:15.298Z,70.60
2018-06-19T20:17:43.742Z,71.00
2018-06-19T20:20:12.192Z,71.50
2018-06-19T20:22:41.067Z,71.60
2018-06-19T20:25:10.175Z,72.30
2018-06-19T20:27:38.688Z,73.40
2018-06-19T20:30:08.074Z,73.10
2018-06-19T20:32:36.542Z,73.60
2018-06-19T20:35:04.969Z,73.80
2018-06-19T20:37:33.320Z,74.70
2018-06-19T20:40:01.664Z,74.60
2018-06-19T20:42:30.087Z,75.20
2018-06-19T20:44:58.812Z,75.60
2018-06-19T20:47:27.256Z,77.20
2018-06-19T20:49:55.717Z,77.50
2018-06-19T20:54:52.221Z,78.00
2018-06-19T20:57:20.572Z,78.80
2018-06-19T20:59:49.412Z,79.80
2018-06-19T21:02:17.756Z,78.50
2018-06-19T21:04:46.129Z,81.00
2018-06-19T21:07:14.512Z,81.80
2018-06-19T21:09:42.860Z,81.70
2018-06-19T21:12:11.191Z,82.10
2018-06-19T21:14:39.537Z,82.80
2018-06-19T21:17:07.891Z,81.60
2018-06-19T21:19:36.216Z,82.30
2018-06-19T21:22:04.576Z,82.60
2018-06-19T21:24:33.002Z,83.60
2018-06-19T21:27:01.294Z,84.80
2018-06-19T21:29:29.625Z,85.80
2018-06-19T21:31:57.959Z,86.50
2018-06-19T21:34:26.272Z,85.80
2018-06-19T21:36:54.580Z,85.00
2018-06-19T21:39:22.858Z,85.80
2018-06-19T21:41:51.216Z,87.20
2018-06-19T21:44:19.647Z,87.20
2018-06-19T21:46:47.951Z,88.80
2018-06-19T21:49:16.254Z,89.20
2018-06-19T21:51:44.628Z,88.50
2018-06-19T21:54:12.960Z,89.00
2018-06-19T21:56:41.265Z,88.10
2018-06-19T21:59:09.663Z,88.20
2018-06-19T22:01:37.968Z,88.80
2018-06-19T22:04:06.241Z,88.90
2018-06-19T22:06:34.549Z,88.40
2018-06-19T22:09:03.114Z,88.20
2018-06-19T22:13:59.510Z,88.20
2018-06-19T22:16:27.823Z,87.90
2018-06-19T22:18:56.174Z,88.40
2018-06-19T22:21:24.471Z,89.00
2018-06-19T22:23:52.892Z,89.00
2018-06-19T22:26:21.279Z,90.10
2018-06-19T22:28:49.673Z,90.40
2018-06-19T22:31:18.027Z,90.30
2018-06-19T22:33:46.384Z,90.20
2018-06-19T22:36:14.744Z,90.70
2018-06-19T22:38:43.088Z,90.70
2018-06-19T22:41:11.395Z,90.90
2018-06-19T22:43:39.749Z,91.20
2018-06-19T22:46:08.073Z,91.40
2018-06-19T22:48:36.498Z,90.90
2018-06-19T22:51:04.873Z,91.30
2018-06-19T22:53:33.211Z,91.40
2018-06-19T22:56:01.586Z,91.70
2018-06-19T22:58:29.872Z,91.70
2018-06-19T23:00:58.210Z,91.70
2018-06-19T23:03:26.504Z,91.70
2018-06-19T23:05:54.795Z,91.80
2018-06-19T23:08:23.164Z,92.10
2018-06-19T23:10:51.522Z,92.30
2018-06-19T23:13:19.803Z,92.60
2018-06-19T23:15:48.099Z,92.50
2018-06-19T23:18:16.405Z,92.20
2018-06-19T23:23:12.775Z,92.30
2018-06-19T23:25:41.097Z,92.60
2018-06-19T23:28:09.460Z,92.50
2018-06-19T23:30:37.825Z,92.50
2018-06-19T23:33:06.288Z,92.30
2018-06-19T23:35:34.692Z,92.50
2018-06-19T23:38:03.073Z,92.30
2018-06-19T23:40:31.441Z,92.50
2018-06-19T23:42:59.921Z,92.40
2018-06-19T23:45:28.327Z,92.60
2018-06-19T23:47:56.753Z,92.80
2018-06-19T23:50:25.196Z,92.70
2018-06-19T23:52:53.600Z,92.80
2018-06-19T23:55:22.068Z,92.90
2018-06-19T23:57:50.437Z,93.30
